Time;durP1;ratioP1;P1;durP2;ratioP2;P2;SDS_P1;SDS_P2;PMS_P1;PMS_P2;Temp;Humidity;BMP_temperature;BMP_pressure;BME280_temperature;BME280_humidity;BME280_pressure;Samples;Min_cycle;Max_cycle;Signal;HPM_P1;HPM_P2
2021/01/06 00:00:33;;;;;;;23.67;13.65;;;4.00;99.90;;;;;;5030531;28;20199;-85
2021/01/06 00:03:00;;;;;;;21.67;12.20;;;4.00;99.90;;;;;;5036368;28;20199;-81
2021/01/06 00:05:27;;;;;;;23.33;14.45;;;4.00;99.90;;;;;;5034940;28;20214;-83
2021/01/06 00:07:53;;;;;;;24.25;13.00;;;3.90;99.90;;;;;;5050073;28;20199;-83
2021/01/06 00:10:24;;;;;;;22.83;14.00;;;4.10;99.90;;;;;;5040219;28;20203;-81
2021/01/06 00:12:51;;;;;;;25.60;12.23;;;4.10;99.90;;;;;;5049919;28;20238;-80
2021/01/06 00:15:19;;;;;;;22.80;13.55;;;4.30;99.90;;;;;;5042314;28;20243;-81
2021/01/06 00:17:46;;;;;;;22.52;13.60;;;4.40;99.90;;;;;;5051996;28;20198;-82
2021/01/06 00:20:14;;;;;;;26.33;14.93;;;4.10;99.90;;;;;;5035500;28;20679;-82
2021/01/06 00:22:41;;;;;;;24.77;15.88;;;4.30;99.90;;;;;;5035468;28;20207;-84
2021/01/06 00:25:11;;;;;;;24.40;14.98;;;4.20;99.90;;;;;;5046712;28;20226;-82
2021/01/06 00:27:38;;;;;;;22.08;13.63;;;4.40;99.90;;;;;;5039251;28;20200;-81
2021/01/06 00:30:10;;;;;;;23.70;12.18;;;4.50;99.90;;;;;;5038157;28;20207;-83
2021/01/06 00:32:36;;;;;;;23.75;12.65;;;4.30;99.90;;;;;;5020104;28;20212;-82
2021/01/06 00:35:05;;;;;;;24.92;13.93;;;4.40;99.90;;;;;;5043102;28;20222;-80
2021/01/06 00:37:32;;;;;;;19.70;13.40;;;4.00;99.90;;;;;;5043328;28;20207;-82
2021/01/06 00:39:58;;;;;;;20.30;13.30;;;4.10;99.90;;;;;;5038429;28;20199;-81
2021/01/06 00:42:25;;;;;;;19.15;10.60;;;4.30;99.90;;;;;;5052690;28;20203;-83
2021/01/06 00:44:53;;;;;;;20.55;12.25;;;4.40;99.90;;;;;;5059507;28;20696;-83
2021/01/06 00:47:19;;;;;;;21.38;11.48;;;4.10;99.90;;;;;;5043816;28;20207;-82
2021/01/06 00:49:46;;;;;;;24.30;13.50;;;4.00;99.90;;;;;;5038503;28;20199;-82
2021/01/06 00:52:13;;;;;;;19.63;9.35;;;4.00;99.90;;;;;;5044429;28;20222;-82
2021/01/06 00:54:40;;;;;;;25.02;13.07;;;4.10;99.90;;;;;;5024428;28;20258;-82
2021/01/06 00:57:06;;;;;;;23.10;13.48;;;3.90;99.90;;;;;;5048225;28;20685;-83
2021/01/06 00:59:33;;;;;;;14.35;7.88;;;3.90;99.90;;;;;;5036855;28;20572;-83
2021/01/06 01:01:59;;;;;;;22.70;12.05;;;4.00;99.90;;;;;;5044082;28;20206;-82
2021/01/06 01:04:26;;;;;;;22.70;11.93;;;3.90;99.90;;;;;;5040380;28;20269;-83
2021/01/06 01:06:53;;;;;;;18.50;9.85;;;3.90;99.90;;;;;;5046461;28;20238;-81
2021/01/06 01:09:20;;;;;;;24.55;12.85;;;3.80;99.90;;;;;;5034597;28;20211;-81
2021/01/06 01:11:47;;;;;;;14.18;8.63;;;3.60;99.90;;;;;;5037428;28;20630;-81
2021/01/06 01:14:13;;;;;;;23.05;12.68;;;3.60;99.90;;;;;;5037680;28;20211;-82
2021/01/06 01:16:43;;;;;;;23.95;13.88;;;3.80;99.90;;;;;;5045059;28;20223;-83
2021/01/06 01:19:10;;;;;;;22.23;13.45;;;3.90;99.90;;;;;;5019740;28;20231;-83
2021/01/06 01:21:36;;;;;;;23.48;13.63;;;4.00;99.90;;;;;;5032598;28;20357;-83
2021/01/06 01:24:03;;;;;;;20.23;11.55;;;3.90;99.90;;;;;;5037984;28;20200;-84
2021/01/06 01:26:31;;;;;;;19.15;11.80;;;4.00;99.90;;;;;;5037583;28;20250;-83
2021/01/06 01:28:57;;;;;;;18.20;11.88;;;3.80;99.90;;;;;;5035429;28;20214;-83
2021/01/06 01:31:31;;;;;;;22.30;13.27;;;4.10;99.90;;;;;;5048451;28;20219;-83
2021/01/06 01:33:58;;;;;;;16.55;10.40;;;3.90;99.90;;;;;;5028790;28;20222;-84
2021/01/06 01:36:25;;;;;;;19.42;11.05;;;4.30;99.90;;;;;;5038017;28;20354;-83
2021/01/06 01:38:52;;;;;;;18.15;9.75;;;4.10;99.90;;;;;;5039638;28;20692;-83
2021/01/06 01:41:21;;;;;;;21.10;12.50;;;4.30;99.90;;;;;;5042619;28;20203;-83
2021/01/06 01:43:49;;;;;;;23.25;11.63;;;4.10;99.90;;;;;;5043909;28;20203;-83
2021/01/06 01:46:43;;;;;;;18.23;12.27;;;3.90;99.90;;;;;;5034055;28;20227;-83
2021/01/06 01:49:17;;;;;;;19.05;9.85;;;4.20;99.90;;;;;;5040690;28;20207;-83
2021/01/06 01:51:52;;;;;;;19.63;11.18;;;4.30;99.90;;;;;;5044116;28;20234;-81
2021/01/06 01:54:19;;;;;;;19.33;10.77;;;4.00;99.90;;;;;;5037532;28;20214;-81
2021/01/06 01:56:51;;;;;;;19.05;10.65;;;4.00;99.90;;;;;;5036453;28;20230;-82
2021/01/06 01:59:25;;;;;;;15.00;9.70;;;4.20;99.90;;;;;;5037917;28;20187;-84
2021/01/06 02:01:55;;;;;;;20.55;11.75;;;3.90;99.90;;;;;;5045120;28;20200;-82
2021/01/06 02:04:30;;;;;;;17.75;10.95;;;4.10;99.90;;;;;;5057944;28;20214;-83
2021/01/06 02:07:02;;;;;;;17.75;11.60;;;3.90;99.90;;;;;;5039924;28;20565;-83
2021/01/06 02:09:37;;;;;;;19.30;10.70;;;3.90;99.90;;;;;;5057954;28;20221;-84
2021/01/06 02:12:12;;;;;;;13.93;10.02;;;4.00;99.90;;;;;;5021305;28;20207;-84
2021/01/06 02:14:51;;;;;;;17.83;10.52;;;4.20;99.90;;;;;;5021394;28;20187;-83
2021/01/06 02:17:17;;;;;;;20.60;12.00;;;3.90;99.90;;;;;;5042640;28;20623;-84
2021/01/06 02:19:46;;;;;;;18.05;9.82;;;4.00;99.90;;;;;;5045793;28;20203;-81
2021/01/06 02:22:16;;;;;;;19.00;12.05;;;3.90;99.90;;;;;;5038916;28;20208;-80
2021/01/06 02:24:44;;;;;;;16.00;10.60;;;3.90;99.90;;;;;;5035465;28;20195;-83
2021/01/06 02:27:11;;;;;;;19.70;12.15;;;3.80;99.90;;;;;;5015174;28;20200;-82
2021/01/06 02:29:39;;;;;;;22.77;12.90;;;3.80;99.90;;;;;;5014723;28;20255;-82
2021/01/06 02:32:06;;;;;;;17.65;11.10;;;3.90;99.90;;;;;;5015041;28;20223;-81
2021/01/06 02:34:35;;;;;;;16.05;11.02;;;4.10;99.90;;;;;;5023532;28;20200;-81
2021/01/06 02:37:02;;;;;;;18.08;10.63;;;4.30;99.90;;;;;;5015119;28;20740;-82
2021/01/06 02:39:29;;;;;;;19.40;11.40;;;4.00;99.90;;;;;;5030072;28;20210;-81
2021/01/06 02:41:56;;;;;;;18.40;10.90;;;4.00;99.90;;;;;;5054374;28;20202;-82
2021/01/06 02:44:23;;;;;;;16.75;9.68;;;4.00;99.90;;;;;;5035435;28;20296;-83
2021/01/06 02:46:50;;;;;;;18.92;10.93;;;4.00;99.90;;;;;;5038406;28;20223;-84
2021/01/06 02:49:18;;;;;;;16.75;10.00;;;3.90;99.90;;;;;;5046679;28;20257;-84
2021/01/06 02:51:48;;;;;;;20.40;11.25;;;3.90;99.90;;;;;;5058389;28;20234;-81
2021/01/06 02:54:20;;;;;;;18.27;11.25;;;3.80;99.90;;;;;;5058440;28;20223;-81
2021/01/06 02:56:52;;;;;;;16.50;10.70;;;3.60;99.90;;;;;;5051813;28;20696;-82
2021/01/06 02:59:25;;;;;;;14.32;8.88;;;3.50;99.90;;;;;;5035306;28;20207;-83
2021/01/06 03:01:53;;;;;;;17.88;11.75;;;3.80;99.90;;;;;;5044885;28;20264;-83
2021/01/06 03:04:24;;;;;;;17.25;10.00;;;3.70;99.90;;;;;;5044381;28;20215;-84
2021/01/06 03:06:55;;;;;;;16.77;10.60;;;3.60;99.90;;;;;;5027238;28;20665;-83
2021/01/06 03:09:29;;;;;;;21.15;11.38;;;3.90;99.90;;;;;;5040457;28;20585;-81
2021/01/06 03:11:59;;;;;;;15.27;9.90;;;4.00;99.90;;;;;;5024846;28;20276;-83
2021/01/06 03:14:28;;;;;;;18.90;10.93;;;3.90;99.90;;;;;;5025145;28;20208;-83
2021/01/06 03:16:56;;;;;;;16.75;8.25;;;3.80;99.90;;;;;;5038459;28;20231;-83
2021/01/06 03:19:25;;;;;;;17.23;10.35;;;3.70;99.90;;;;;;5037577;28;20677;-82
2021/01/06 03:21:53;;;;;;;18.73;10.27;;;3.60;99.90;;;;;;5048008;28;20657;-83
2021/01/06 03:24:23;;;;;;;15.32;10.00;;;3.50;99.90;;;;;;5057919;28;20691;-83
2021/01/06 03:26:51;;;;;;;15.38;9.43;;;3.50;99.90;;;;;;5042741;28;20287;-83
2021/01/06 03:29:20;;;;;;;19.70;11.52;;;3.40;99.90;;;;;;5039265;28;20202;-82
2021/01/06 03:31:49;;;;;;;21.02;11.73;;;3.50;99.90;;;;;;5037280;28;20227;-83
2021/01/06 03:34:20;;;;;;;17.98;11.25;;;3.60;99.90;;;;;;5038041;28;20210;-83
2021/01/06 03:36:55;;;;;;;18.10;10.60;;;3.60;99.90;;;;;;5050425;28;20614;-83
2021/01/06 03:39:25;;;;;;;16.38;9.38;;;3.80;99.90;;;;;;5037232;28;20230;-83
2021/01/06 03:41:53;;;;;;;14.70;9.13;;;3.90;99.90;;;;;;5055326;28;20195;-83
2021/01/06 03:44:23;;;;;;;15.98;9.13;;;3.50;99.90;;;;;;5048740;28;20226;-83
2021/01/06 03:46:58;;;;;;;14.88;10.23;;;3.40;99.90;;;;;;5038818;28;20274;-83
2021/01/06 03:49:41;;;;;;;15.38;8.65;;;3.40;99.90;;;;;;5037744;28;20199;-82
2021/01/06 03:52:14;;;;;;;15.13;9.63;;;3.50;99.90;;;;;;5037421;28;20215;-82
2021/01/06 03:54:49;;;;;;;16.30;10.20;;;3.40;99.90;;;;;;5036910;28;20210;-83
2021/01/06 03:57:16;;;;;;;18.73;11.73;;;3.50;99.90;;;;;;5046653;28;20212;-84
2021/01/06 03:59:49;;;;;;;20.33;12.35;;;3.70;99.90;;;;;;5047160;28;20584;-83
2021/01/06 04:02:20;;;;;;;16.92;10.45;;;3.60;99.90;;;;;;5038021;28;20211;-83
2021/01/06 04:04:50;;;;;;;18.60;12.32;;;3.50;99.90;;;;;;5029545;28;20204;-84
2021/01/06 04:07:21;;;;;;;15.32;10.75;;;3.40;99.90;;;;;;5036413;28;20207;-83
2021/01/06 04:09:52;;;;;;;18.42;10.48;;;3.50;99.90;;;;;;5048305;28;20550;-83
2021/01/06 04:12:19;;;;;;;17.05;10.63;;;3.70;99.90;;;;;;5063188;28;20276;-83
2021/01/06 04:14:48;;;;;;;20.40;12.13;;;3.60;99.90;;;;;;5059489;28;20203;-83
2021/01/06 04:17:25;;;;;;;16.23;10.48;;;3.60;99.90;;;;;;5051888;28;20205;-83
2021/01/06 04:19:57;;;;;;;15.02;10.48;;;3.40;99.90;;;;;;5044679;28;20195;-83
2021/01/06 04:22:38;;;;;;;17.38;10.27;;;3.60;99.90;;;;;;5058818;28;20217;-82
2021/01/06 04:25:09;;;;;;;20.42;9.27;;;3.60;99.90;;;;;;5053934;28;20400;-82
2021/01/06 04:27:36;;;;;;;14.38;8.95;;;3.50;99.90;;;;;;5049934;28;20199;-82
2021/01/06 04:30:08;;;;;;;16.17;9.77;;;3.30;99.90;;;;;;5049431;28;20203;-82
2021/01/06 04:32:36;;;;;;;13.98;9.65;;;3.30;99.90;;;;;;5041808;28;20223;-83
2021/01/06 04:35:07;;;;;;;11.93;6.25;;;3.30;99.90;;;;;;5041491;28;20223;-83
2021/01/06 04:37:34;;;;;;;15.68;9.25;;;3.40;99.90;;;;;;5040497;28;20195;-82
2021/01/06 04:40:00;;;;;;;16.63;10.02;;;3.20;99.90;;;;;;5040423;28;20754;-82
2021/01/06 04:42:28;;;;;;;16.85;10.52;;;3.40;99.90;;;;;;5041227;28;20237;-82
2021/01/06 04:45:02;;;;;;;20.73;8.88;;;3.10;99.90;;;;;;5040912;28;20203;-83
2021/01/06 04:48:11;;;;;;;15.90;9.48;;;3.30;99.90;;;;;;5041146;28;20252;-83
2021/01/06 04:51:08;;;;;;;18.25;10.55;;;3.60;99.90;;;;;;5033942;28;20203;-83
2021/01/06 04:54:05;;;;;;;17.85;8.68;;;3.20;99.90;;;;;;5027332;28;20227;-82
2021/01/06 04:56:42;;;;;;;18.52;11.48;;;3.40;99.90;;;;;;5038220;28;20245;-82
2021/01/06 04:59:21;;;;;;;18.40;9.50;;;3.50;99.90;;;;;;5045900;28;20261;-83
2021/01/06 05:02:09;;;;;;;18.35;10.98;;;3.40;99.90;;;;;;5040519;28;20198;-82
2021/01/06 05:05:05;;;;;;;15.85;10.70;;;3.50;99.90;;;;;;5052774;28;20653;-83
2021/01/06 05:07:51;;;;;;;18.88;10.02;;;3.20;99.90;;;;;;5049899;28;20207;-83
2021/01/06 05:10:27;;;;;;;20.88;12.02;;;3.50;99.90;;;;;;5060297;28;20268;-83
2021/01/06 05:12:59;;;;;;;14.57;8.68;;;3.30;99.90;;;;;;5057366;28;20226;-82
2021/01/06 05:15:40;;;;;;;17.52;10.60;;;3.30;99.90;;;;;;5060525;28;20237;-82
2021/01/06 05:18:07;;;;;;;17.95;10.65;;;3.40;99.90;;;;;;5085103;22;20226;-86
2021/01/06 05:20:34;;;;;;;17.45;10.55;;;3.40;99.90;;;;;;5080615;28;20247;-86
2021/01/06 05:23:02;;;;;;;17.80;10.63;;;3.60;99.90;;;;;;5085083;28;20261;-85
2021/01/06 05:25:29;;;;;;;16.52;9.40;;;3.50;99.90;;;;;;5078754;28;20317;-85
2021/01/06 05:27:57;;;;;;;16.63;9.85;;;3.40;99.90;;;;;;5077889;28;20297;-87
2021/01/06 05:30:27;;;;;;;14.82;10.15;;;3.50;99.90;;;;;;5068950;28;20256;-87
2021/01/06 05:32:58;;;;;;;18.30;10.65;;;3.60;99.90;;;;;;5065840;28;20213;-86
2021/01/06 05:35:29;;;;;;;16.75;10.63;;;3.60;99.90;;;;;;5069036;28;20198;-87
2021/01/06 05:37:58;;;;;;;15.20;9.30;;;3.40;99.90;;;;;;5037529;28;20226;-84
2021/01/06 05:40:26;;;;;;;16.48;9.82;;;3.60;99.90;;;;;;5046168;28;20203;-87
2021/01/06 05:42:55;;;;;;;17.60;11.02;;;3.70;99.90;;;;;;5059207;28;20206;-87
2021/01/06 05:45:25;;;;;;;14.55;8.77;;;3.50;99.90;;;;;;5058170;28;20203;-87
2021/01/06 05:47:56;;;;;;;19.90;10.13;;;3.60;99.90;;;;;;5042768;28;20227;-87
2021/01/06 05:50:26;;;;;;;18.45;10.95;;;3.30;99.90;;;;;;5057548;28;20202;-86
2021/01/06 05:52:58;;;;;;;14.13;8.98;;;3.50;99.90;;;;;;5078479;28;20642;-86
2021/01/06 05:55:29;;;;;;;15.73;9.05;;;3.60;99.90;;;;;;5072961;28;20206;-86
2021/01/06 05:58:05;;;;;;;17.02;10.25;;;3.50;99.90;;;;;;5076899;28;20253;-84
2021/01/06 06:00:43;;;;;;;21.90;10.25;;;3.80;99.90;;;;;;5063919;28;20202;-84
2021/01/06 06:03:35;;;;;;;14.45;9.82;;;3.40;99.90;;;;;;5065480;28;20195;-85
2021/01/06 06:06:17;;;;;;;14.85;10.00;;;3.20;99.90;;;;;;5058048;28;20591;-84
2021/01/06 06:08:52;;;;;;;15.05;10.10;;;3.60;99.90;;;;;;5057806;28;20744;-85
2021/01/06 06:11:56;;;;;;;15.23;9.50;;;3.60;99.90;;;;;;5059994;28;20221;-86
2021/01/06 06:14:58;;;;;;;15.65;9.77;;;3.30;99.90;;;;;;5078514;28;20214;-83
2021/01/06 06:17:33;;;;;;;12.32;8.50;;;3.80;99.90;;;;;;5048114;28;20247;-86
2021/01/06 06:20:14;;;;;;;14.30;7.80;;;3.90;99.90;;;;;;5061752;28;20202;-87
2021/01/06 06:22:51;;;;;;;14.50;9.95;;;3.70;99.90;;;;;;5063694;28;20213;-87
2021/01/06 06:25:23;;;;;;;17.15;9.77;;;3.30;99.90;;;;;;5065708;28;20205;-85
2021/01/06 06:28:05;;;;;;;14.30;9.55;;;3.60;99.90;;;;;;5058051;28;20222;-85
2021/01/06 06:30:37;;;;;;;15.13;8.63;;;3.70;99.90;;;;;;5057365;28;20672;-86
2021/01/06 06:33:14;;;;;;;12.95;8.38;;;3.60;99.90;;;;;;5079675;28;20216;-81
2021/01/06 06:35:48;;;;;;;12.68;8.40;;;3.90;99.90;;;;;;5091884;28;20212;-82
2021/01/06 06:38:16;;;;;;;15.80;9.13;;;3.80;99.90;;;;;;5076323;28;20231;-81
2021/01/06 06:40:58;;;;;;;9.23;6.55;;;3.80;99.90;;;;;;5071710;28;20210;-86
2021/01/06 06:43:34;;;;;;;17.92;9.20;;;3.50;99.90;;;;;;5070340;28;20202;-84
2021/01/06 06:46:11;;;;;;;13.55;8.38;;;3.60;99.90;;;;;;5059298;28;20202;-82
2021/01/06 06:48:46;;;;;;;13.18;7.93;;;3.70;99.90;;;;;;5059063;28;20230;-82
2021/01/06 06:51:18;;;;;;;14.35;8.00;;;3.60;99.90;;;;;;5058911;28;20244;-83
2021/01/06 06:53:54;;;;;;;13.00;8.20;;;3.60;99.90;;;;;;5067045;28;20199;-82
2021/01/06 06:56:35;;;;;;;13.00;7.82;;;3.50;99.90;;;;;;5077388;28;20206;-85
2021/01/06 06:59:10;;;;;;;12.10;7.65;;;3.60;99.90;;;;;;5059988;28;20229;-80
2021/01/06 07:01:39;;;;;;;11.55;8.15;;;3.70;99.90;;;;;;5082709;28;20201;-81
2021/01/06 07:04:14;;;;;;;13.73;8.00;;;3.70;99.90;;;;;;5072704;28;20202;-83
2021/01/06 07:06:41;;;;;;;12.52;6.65;;;3.70;99.90;;;;;;5062164;28;20229;-83
2021/01/06 07:09:18;;;;;;;14.00;6.55;;;3.50;99.90;;;;;;5060431;28;20352;-82
2021/01/06 07:11:48;;;;;;;12.40;7.65;;;3.50;99.90;;;;;;5070393;28;20223;-83
2021/01/06 07:14:22;;;;;;;12.60;7.82;;;3.40;99.90;;;;;;5059541;28;20210;-83
2021/01/06 07:17:03;;;;;;;12.55;8.35;;;3.40;99.90;;;;;;5060086;28;20202;-87
2021/01/06 07:19:32;;;;;;;13.98;8.63;;;3.50;99.90;;;;;;5059775;28;20237;-83
2021/01/06 07:22:18;;;;;;;14.38;7.45;;;3.40;99.90;;;;;;5072492;28;20226;-84
2021/01/06 07:24:50;;;;;;;14.25;7.18;;;3.60;99.90;;;;;;5065241;28;20224;-83
2021/01/06 07:27:17;;;;;;;11.30;7.43;;;3.70;99.90;;;;;;5063832;28;20287;-82
2021/01/06 07:29:49;;;;;;;9.82;6.07;;;3.90;99.90;;;;;;5063131;28;20233;-81
2021/01/06 07:32:17;;;;;;;13.88;7.13;;;3.90;99.90;;;;;;5069974;28;20688;-84
2021/01/06 07:34:50;;;;;;;10.02;6.72;;;3.80;99.90;;;;;;5076681;28;20205;-83
2021/01/06 07:37:35;;;;;;;10.93;6.63;;;3.80;99.90;;;;;;5059565;28;20545;-86
2021/01/06 07:40:18;;;;;;;12.55;7.82;;;3.60;99.90;;;;;;5058836;28;20252;-85
2021/01/06 07:42:47;;;;;;;11.35;6.50;;;3.80;99.90;;;;;;5061853;28;20191;-85
2021/01/06 07:45:37;;;;;;;11.68;7.70;;;3.90;99.90;;;;;;5047860;28;20198;-83
2021/01/06 07:48:33;;;;;;;18.10;6.95;;;3.70;99.90;;;;;;5057447;28;20312;-84
2021/01/06 07:51:09;;;;;;;9.25;6.30;;;3.70;99.90;;;;;;5061393;28;20206;-85
2021/01/06 07:53:40;;;;;;;13.95;7.45;;;3.30;99.90;;;;;;5062196;28;20224;-84
2021/01/06 07:56:20;;;;;;;12.05;7.30;;;3.50;99.90;;;;;;5061354;28;20696;-82
2021/01/06 07:58:52;;;;;;;10.60;7.00;;;3.50;99.90;;;;;;5058634;28;20317;-81
2021/01/06 08:01:32;;;;;;;9.68;6.50;;;3.70;99.90;;;;;;5063571;28;20690;-82
2021/01/06 08:04:06;;;;;;;8.60;6.10;;;3.70;99.90;;;;;;5079523;28;20197;-81
2021/01/06 08:06:54;;;;;;;10.80;6.72;;;3.60;99.90;;;;;;5061016;28;20266;-83
2021/01/06 08:09:31;;;;;;;11.35;6.53;;;3.50;99.90;;;;;;5057456;28;20368;-81
2021/01/06 08:12:01;;;;;;;11.40;7.18;;;3.60;99.90;;;;;;5049348;28;20622;-84
2021/01/06 08:14:33;;;;;;;13.98;7.50;;;3.40;99.90;;;;;;5057358;28;20252;-83
2021/01/06 08:17:06;;;;;;;10.70;7.47;;;3.30;99.90;;;;;;5058035;28;20256;-84
2021/01/06 08:19:39;;;;;;;11.85;8.02;;;3.60;99.90;;;;;;5060873;28;20210;-83
2021/01/06 08:22:20;;;;;;;11.50;7.60;;;3.70;99.90;;;;;;5078800;28;20209;-84
2021/01/06 08:24:51;;;;;;;11.60;7.32;;;3.60;99.90;;;;;;5072766;28;20198;-84
2021/01/06 08:27:28;;;;;;;8.90;4.97;;;3.70;99.90;;;;;;5064568;28;20222;-84
2021/01/06 08:30:11;;;;;;;11.20;6.22;;;3.80;99.90;;;;;;5059009;28;20202;-84
2021/01/06 08:32:38;;;;;;;10.90;6.63;;;3.50;99.90;;;;;;5072833;28;20222;-82
2021/01/06 08:35:09;;;;;;;12.05;7.68;;;3.40;99.90;;;;;;5071163;28;20198;-84
2021/01/06 08:37:39;;;;;;;10.48;6.85;;;3.20;99.90;;;;;;5071308;28;20283;-83
2021/01/06 08:40:23;;;;;;;11.10;7.85;;;3.10;99.90;;;;;;5061013;28;20210;-84
2021/01/06 08:42:50;;;;;;;12.80;8.30;;;3.10;99.90;;;;;;5076515;28;20198;-83
2021/01/06 08:45:21;;;;;;;11.70;7.68;;;3.40;99.90;;;;;;5081695;28;20202;-83
2021/01/06 08:47:48;;;;;;;11.68;7.70;;;3.40;99.90;;;;;;5083244;28;20216;-83
2021/01/06 08:50:29;;;;;;;9.90;6.95;;;3.20;99.90;;;;;;5084445;28;20203;-81
2021/01/06 08:52:59;;;;;;;12.15;7.03;;;3.40;99.90;;;;;;5069490;28;20258;-80
2021/01/06 08:55:31;;;;;;;9.10;6.70;;;3.60;99.90;;;;;;5071872;28;20221;-82
2021/01/06 08:58:00;;;;;;;11.52;6.70;;;3.50;99.90;;;;;;5073773;28;20221;-80
2021/01/06 09:00:30;;;;;;;9.75;6.80;;;3.80;99.90;;;;;;5062714;28;20209;-81
2021/01/06 09:03:08;;;;;;;9.70;6.07;;;3.50;99.90;;;;;;5070295;28;20193;-81
2021/01/06 09:05:55;;;;;;;11.65;7.03;;;3.60;99.90;;;;;;5055302;28;20202;-83
2021/01/06 09:08:24;;;;;;;10.90;7.10;;;3.30;99.90;;;;;;5060131;28;20243;-81
2021/01/06 09:11:04;;;;;;;10.00;7.38;;;3.50;99.90;;;;;;5061514;28;20206;-83
2021/01/06 09:13:36;;;;;;;12.38;6.80;;;3.50;99.90;;;;;;5068169;28;20197;-82
2021/01/06 09:16:09;;;;;;;10.82;5.90;;;3.40;99.90;;;;;;5080723;28;20729;-82
2021/01/06 09:18:40;;;;;;;11.23;7.05;;;3.10;99.90;;;;;;5061068;28;20229;-81
2021/01/06 09:21:16;;;;;;;6.60;3.03;;;3.30;99.90;;;;;;5058434;28;20194;-81
2021/01/06 09:23:46;;;;;;;11.38;6.88;;;3.30;99.90;;;;;;5060025;28;20636;-82
2021/01/06 09:26:17;;;;;;;10.48;7.05;;;3.30;99.90;;;;;;5060445;28;20269;-85
2021/01/06 09:28:49;;;;;;;11.20;6.95;;;3.50;99.90;;;;;;5057752;28;20577;-80
2021/01/06 09:31:16;;;;;;;10.20;7.05;;;3.50;99.90;;;;;;5057537;28;20218;-80
2021/01/06 09:33:45;;;;;;;12.80;8.00;;;3.50;99.90;;;;;;5058019;28;20209;-81
2021/01/06 09:36:13;;;;;;;10.65;7.38;;;3.30;99.90;;;;;;5057719;28;20207;-80
2021/01/06 09:38:44;;;;;;;10.32;6.80;;;3.70;99.90;;;;;;5057667;28;20250;-80
2021/01/06 09:41:14;;;;;;;12.65;6.78;;;3.40;99.90;;;;;;5052926;28;20219;-80
2021/01/06 09:43:47;;;;;;;12.45;8.13;;;3.70;99.90;;;;;;5063651;28;20207;-82
2021/01/06 09:46:19;;;;;;;11.40;7.90;;;3.60;99.90;;;;;;5057406;28;20247;-81
2021/01/06 09:48:54;;;;;;;10.77;6.55;;;3.70;99.90;;;;;;5057959;28;20594;-83
2021/01/06 09:51:22;;;;;;;11.55;7.45;;;3.80;99.90;;;;;;5063514;28;20228;-81
2021/01/06 09:53:53;;;;;;;13.18;8.07;;;3.80;99.90;;;;;;5068993;28;20202;-82
2021/01/06 09:56:22;;;;;;;10.77;6.95;;;3.90;99.90;;;;;;5066710;28;20206;-80
2021/01/06 09:58:50;;;;;;;11.50;7.30;;;3.90;99.90;;;;;;5066582;28;20257;-80
2021/01/06 10:01:27;;;;;;;8.93;6.43;;;3.80;99.90;;;;;;5062965;28;20687;-80
2021/01/06 10:03:56;;;;;;;10.68;7.10;;;3.70;99.90;;;;;;5059570;28;20558;-80
2021/01/06 10:06:39;;;;;;;11.68;8.30;;;3.70;99.90;;;;;;5059536;28;20203;-79
2021/01/06 10:09:12;;;;;;;10.40;7.00;;;3.60;99.90;;;;;;5056710;28;20850;-81
2021/01/06 10:11:56;;;;;;;11.23;7.68;;;3.40;99.90;;;;;;5056718;28;20272;-81
2021/01/06 10:14:39;;;;;;;11.52;8.32;;;3.20;99.90;;;;;;5057456;28;20565;-80
2021/01/06 10:17:11;;;;;;;11.60;8.50;;;3.50;99.90;;;;;;5059293;28;20207;-80
2021/01/06 10:19:48;;;;;;;12.15;7.93;;;3.60;99.90;;;;;;5070635;28;20274;-80
2021/01/06 10:22:32;;;;;;;15.23;8.82;;;3.70;99.90;;;;;;5063957;28;20199;-80
2021/01/06 10:25:20;;;;;;;13.20;7.45;;;3.50;99.90;;;;;;5060666;28;20214;-82
2021/01/06 10:27:59;;;;;;;10.40;7.70;;;3.60;99.90;;;;;;5059632;28;20234;-82
2021/01/06 10:30:28;;;;;;;11.57;7.45;;;3.50;99.90;;;;;;5061149;28;20202;-81
2021/01/06 10:33:16;;;;;;;10.70;7.38;;;3.90;99.90;;;;;;5059953;28;20246;-82
2021/01/06 10:36:09;;;;;;;11.98;8.48;;;3.80;99.90;;;;;;5060481;28;20280;-81
2021/01/06 10:38:48;;;;;;;11.68;8.00;;;3.90;99.90;;;;;;5054554;28;20238;-80
2021/01/06 10:41:25;;;;;;;12.93;8.80;;;3.60;99.90;;;;;;5067465;28;20209;-81
2021/01/06 10:43:53;;;;;;;11.73;7.78;;;3.80;99.90;;;;;;5069353;28;20217;-80
2021/01/06 10:46:50;;;;;;;12.30;8.10;;;3.80;99.90;;;;;;5069313;28;20696;-80
2021/01/06 10:49:55;;;;;;;11.32;8.10;;;3.90;99.90;;;;;;5071965;28;20226;-81
2021/01/06 10:52:33;;;;;;;16.50;9.48;;;4.00;99.90;;;;;;5048590;28;20206;-80
2021/01/06 10:55:19;;;;;;;11.20;7.85;;;4.10;99.90;;;;;;5038962;28;20573;-80
2021/01/06 10:57:50;;;;;;;11.75;8.35;;;3.60;99.90;;;;;;5056770;28;20257;-80
2021/01/06 11:00:20;;;;;;;14.23;8.10;;;3.80;99.90;;;;;;5074536;28;20206;-79
2021/01/06 11:03:16;;;;;;;11.95;8.40;;;3.80;99.90;;;;;;5077742;28;20205;-81
2021/01/06 11:05:59;;;;;;;15.38;7.97;;;3.90;99.90;;;;;;5076995;28;20218;-81
2021/01/06 11:08:59;;;;;;;12.15;8.40;;;3.90;99.90;;;;;;5075649;28;20235;-80
2021/01/06 11:11:55;;;;;;;12.98;8.75;;;3.70;99.90;;;;;;5082795;28;20224;-81
2021/01/06 11:15:01;;;;;;;11.85;7.65;;;3.80;99.90;;;;;;5078763;28;20202;-80
2021/01/06 11:17:33;;;;;;;13.50;8.45;;;3.70;99.90;;;;;;5035550;28;20229;-81
2021/01/06 11:20:01;;;;;;;12.10;8.00;;;3.70;99.90;;;;;;5048938;22;20579;-82
2021/01/06 11:22:46;;;;;;;13.43;8.85;;;3.80;99.90;;;;;;5016348;28;20204;-82
2021/01/06 11:25:42;;;;;;;14.02;9.18;;;3.80;99.90;;;;;;5018620;28;20276;-82
2021/01/06 11:28:26;;;;;;;13.25;8.25;;;3.70;99.90;;;;;;5018504;28;20214;-81
2021/01/06 11:31:25;;;;;;;9.80;6.82;;;3.90;99.90;;;;;;4990779;28;20208;-82
2021/01/06 11:33:54;;;;;;;15.27;9.63;;;3.70;99.90;;;;;;4957695;28;20810;-82
2021/01/06 11:36:46;;;;;;;12.63;7.95;;;3.60;99.90;;;;;;5001015;28;20277;-82
2021/01/06 11:39:15;;;;;;;13.65;7.82;;;3.80;99.90;;;;;;4995659;28;20220;-81
2021/01/06 11:42:07;;;;;;;13.00;8.48;;;3.50;99.90;;;;;;5005287;28;20212;-82
2021/01/06 11:44:37;;;;;;;14.27;9.60;;;3.80;99.90;;;;;;5006985;28;20667;-82
2021/01/06 11:47:22;;;;;;;13.68;8.23;;;3.60;99.90;;;;;;5005021;28;20199;-81
2021/01/06 11:49:55;;;;;;;14.23;8.73;;;3.60;99.90;;;;;;4992368;28;20232;-82
2021/01/06 11:52:43;;;;;;;16.10;9.90;;;3.60;99.90;;;;;;5000780;28;20228;-81
2021/01/06 11:55:37;;;;;;;14.43;9.07;;;3.60;99.90;;;;;;5008042;28;20242;-81
2021/01/06 11:58:32;;;;;;;13.80;9.32;;;3.60;99.90;;;;;;5004121;28;20215;-81
2021/01/06 12:01:22;;;;;;;15.77;10.07;;;3.70;99.90;;;;;;4987346;28;20233;-81
2021/01/06 12:04:21;;;;;;;15.13;9.45;;;3.50;99.90;;;;;;4989827;28;20220;-81
2021/01/06 12:07:00;;;;;;;14.07;9.13;;;3.90;99.90;;;;;;4977667;28;20200;-80
2021/01/06 12:09:36;;;;;;;14.77;9.05;;;3.70;99.90;;;;;;4995911;28;20288;-81
2021/01/06 12:12:26;;;;;;;11.70;8.25;;;3.80;99.90;;;;;;4998679;28;20310;-85
2021/01/06 12:15:04;;;;;;;13.27;8.95;;;3.60;99.90;;;;;;4997129;28;20537;-83
2021/01/06 12:17:36;;;;;;;13.73;9.50;;;3.50;99.90;;;;;;4997032;28;20232;-84
2021/01/06 12:20:08;;;;;;;17.10;9.40;;;3.60;99.90;;;;;;4996405;28;20252;-83
2021/01/06 12:22:38;;;;;;;13.60;10.23;;;3.60;99.90;;;;;;4994881;28;20219;-84
2021/01/06 12:25:41;;;;;;;13.43;9.27;;;3.50;99.90;;;;;;4998243;28;20208;-81
2021/01/06 12:28:27;;;;;;;15.38;10.15;;;3.80;99.90;;;;;;4909083;29;20207;-84
2021/01/06 12:31:13;;;;;;;14.65;9.52;;;4.00;99.90;;;;;;4914855;29;20211;-85
2021/01/06 12:33:46;;;;;;;15.25;9.75;;;3.70;99.90;;;;;;4974702;28;20272;-85
2021/01/06 12:36:24;;;;;;;15.50;10.30;;;3.70;99.90;;;;;;5002410;28;20200;-81
2021/01/06 12:38:53;;;;;;;15.02;9.80;;;3.70;99.90;;;;;;4998661;28;20228;-80
2021/01/06 12:41:23;;;;;;;13.00;8.98;;;3.50;99.90;;;;;;5000816;28;20209;-83
2021/01/06 12:44:06;;;;;;;13.45;9.43;;;3.80;99.90;;;;;;4997562;28;20664;-80
2021/01/06 12:46:41;;;;;;;14.43;9.38;;;3.90;99.90;;;;;;4997033;28;20240;-79
2021/01/06 12:49:33;;;;;;;14.73;8.95;;;3.90;99.90;;;;;;5001787;28;20231;-82
2021/01/06 12:52:24;;;;;;;14.15;9.15;;;3.80;99.90;;;;;;5003897;28;20298;-81
2021/01/06 12:54:57;;;;;;;13.23;8.85;;;3.80;99.90;;;;;;5000959;28;20555;-84
2021/01/06 12:57:30;;;;;;;11.27;8.00;;;3.90;99.90;;;;;;4999824;28;20569;-84
2021/01/06 13:00:01;;;;;;;13.02;9.02;;;3.70;99.90;;;;;;4998921;28;20282;-84
2021/01/06 13:02:33;;;;;;;13.60;9.18;;;3.90;99.90;;;;;;5003622;28;20695;-83
2021/01/06 13:05:16;;;;;;;11.02;7.75;;;3.80;99.90;;;;;;5001600;28;20232;-81
2021/01/06 13:07:49;;;;;;;13.52;8.57;;;3.80;99.90;;;;;;4995901;28;20570;-78
2021/01/06 13:10:30;;;;;;;14.35;9.50;;;3.90;99.90;;;;;;4995073;28;20695;-81
2021/01/06 13:13:05;;;;;;;12.15;7.60;;;3.70;99.90;;;;;;4998516;28;20225;-80
2021/01/06 13:15:40;;;;;;;11.65;8.52;;;3.60;99.90;;;;;;4998381;28;20207;-83
2021/01/06 13:18:12;;;;;;;11.70;7.32;;;3.80;99.90;;;;;;4999778;28;20204;-83
2021/01/06 13:20:45;;;;;;;11.45;7.40;;;3.90;99.90;;;;;;4999599;28;20600;-83